Time;durP1;ratioP1;P1;durP2;ratioP2;P2;SDS_P1;SDS_P2;PMS_P1;PMS_P2;Temp;Humidity;BMP_temperature;BMP_pressure;BME280_temperature;BME280_humidity;BME280_pressure;Samples;Min_cycle;Max_cycle;Signal;HPM_P1;HPM_P2
2021/07/17 00:00:37;;;;;;;23.80;7.35;;;20.00;78.60;;;;;;6213178;23;20218;-74
2021/07/17 00:03:05;;;;;;;23.83;7.70;;;20.00;78.40;;;;;;6218859;23;20031;-73
2021/07/17 00:05:38;;;;;;;18.10;7.13;;;20.00;78.60;;;;;;6220977;23;20020;-74
2021/07/17 00:08:06;;;;;;;21.35;7.40;;;20.00;78.70;;;;;;6219477;23;20024;-74
2021/07/17 00:10:47;;;;;;;14.48;7.05;;;19.90;78.80;;;;;;6220552;23;20086;-74
2021/07/17 00:13:15;;;;;;;24.17;8.82;;;19.90;78.90;;;;;;6221586;23;20048;-74
2021/07/17 00:15:43;;;;;;;19.58;7.20;;;19.90;79.00;;;;;;6193908;23;20017;-73
2021/07/17 00:18:12;;;;;;;20.70;7.55;;;19.90;79.10;;;;;;6220220;23;20051;-74
2021/07/17 00:20:40;;;;;;;15.50;7.70;;;19.90;78.90;;;;;;6219893;23;20063;-74
2021/07/17 00:23:07;;;;;;;18.98;7.05;;;19.80;79.00;;;;;;6218978;23;20293;-73
2021/07/17 00:25:34;;;;;;;13.00;6.32;;;19.80;79.20;;;;;;6189702;23;20036;-74
2021/07/17 00:28:03;;;;;;;14.88;6.88;;;19.80;79.30;;;;;;6218360;23;20024;-74
2021/07/17 00:30:30;;;;;;;14.07;7.43;;;19.70;79.40;;;;;;6217612;23;20312;-73
2021/07/17 00:32:57;;;;;;;15.73;6.82;;;19.80;79.50;;;;;;6191566;23;20409;-74
2021/07/17 00:35:25;;;;;;;23.67;7.82;;;19.80;79.40;;;;;;6215689;23;20277;-73
2021/07/17 00:37:52;;;;;;;18.65;6.47;;;19.80;79.30;;;;;;6191951;23;20032;-74
2021/07/17 00:40:21;;;;;;;12.85;6.53;;;19.70;79.30;;;;;;6215430;23;20731;-73
2021/07/17 00:42:48;;;;;;;15.00;6.53;;;19.80;79.30;;;;;;6214444;23;20030;-73
2021/07/17 00:45:20;;;;;;;21.40;6.75;;;19.80;79.50;;;;;;6215106;23;20039;-74
2021/07/17 00:47:48;;;;;;;17.52;7.03;;;19.70;79.60;;;;;;6190058;23;20024;-74
2021/07/17 00:50:17;;;;;;;12.70;5.90;;;19.70;79.70;;;;;;6215495;23;20035;-74
2021/07/17 00:52:44;;;;;;;18.58;7.40;;;19.70;79.80;;;;;;6188722;23;20376;-73
2021/07/17 00:55:13;;;;;;;15.95;7.55;;;19.70;79.80;;;;;;6214531;23;20040;-74
2021/07/17 00:57:42;;;;;;;14.35;6.20;;;19.60;80.10;;;;;;6186593;23;20055;-74
2021/07/17 01:00:11;;;;;;;14.10;5.90;;;19.60;80.20;;;;;;6210652;23;20031;-74
2021/07/17 01:02:44;;;;;;;14.27;6.95;;;19.60;80.30;;;;;;6213699;23;20027;-73
2021/07/17 01:05:13;;;;;;;15.27;6.55;;;19.60;80.40;;;;;;6213241;23;20316;-74
2021/07/17 01:07:40;;;;;;;14.70;6.35;;;19.70;80.20;;;;;;6215089;23;20020;-74
2021/07/17 01:10:10;;;;;;;13.48;6.57;;;19.70;80.00;;;;;;6215218;23;20044;-74
2021/07/17 01:12:43;;;;;;;15.60;6.05;;;19.70;80.10;;;;;;6212992;23;20028;-73
2021/07/17 01:15:12;;;;;;;13.82;6.10;;;19.60;80.40;;;;;;6215173;23;20227;-73
2021/07/17 01:17:41;;;;;;;17.15;6.45;;;19.70;80.20;;;;;;6214657;23;20315;-74
2021/07/17 01:20:11;;;;;;;16.65;7.68;;;19.60;80.30;;;;;;6214378;23;20320;-73
2021/07/17 01:22:39;;;;;;;;;;;19.70;80.20;;;;;;6214066;23;20025;-73
2021/07/17 01:25:08;;;;;;;14.27;5.75;;;19.70;80.20;;;;;;6213282;23;19926;-74
2021/07/17 01:27:36;;;;;;;10.47;6.13;;;19.70;80.20;;;;;;6212670;23;20595;-73
2021/07/17 01:30:06;;;;;;;16.25;6.18;;;19.70;80.20;;;;;;6214053;23;20419;-74
2021/07/17 01:32:33;;;;;;;10.75;6.20;;;19.70;80.30;;;;;;6187854;23;20028;-73
2021/07/17 01:35:01;;;;;;;9.45;5.63;;;19.70;80.40;;;;;;6215542;23;20025;-73
2021/07/17 01:37:33;;;;;;;16.55;6.50;;;19.60;80.60;;;;;;6216541;23;20072;-73
2021/07/17 01:40:04;;;;;;;15.95;6.68;;;19.60;80.80;;;;;;6217306;23;20047;-73
2021/07/17 01:42:31;;;;;;;13.52;6.20;;;19.60;80.90;;;;;;6212900;23;20040;-73
2021/07/17 01:44:58;;;;;;;14.88;6.30;;;19.50;81.40;;;;;;6214220;23;20038;-73
2021/07/17 01:47:25;;;;;;;11.07;5.95;;;19.40;81.60;;;;;;6215481;23;20331;-73
2021/07/17 01:49:53;;;;;;;12.50;6.25;;;19.40;81.70;;;;;;6215797;23;20024;-73
2021/07/17 01:52:20;;;;;;;14.43;6.78;;;19.40;81.80;;;;;;6215117;23;20065;-73
2021/07/17 01:54:47;;;;;;;15.50;7.18;;;19.50;81.70;;;;;;6214154;23;20031;-74
2021/07/17 01:57:16;;;;;;;15.27;7.13;;;19.40;81.70;;;;;;6190892;23;20051;-74
2021/07/17 01:59:45;;;;;;;14.85;6.05;;;19.40;81.90;;;;;;6216120;23;20100;-74
2021/07/17 02:02:13;;;;;;;15.15;6.53;;;19.20;82.40;;;;;;6183246;23;20055;-73
2021/07/17 02:04:40;;;;;;;14.45;7.03;;;19.30;82.20;;;;;;6213263;23;20040;-73
2021/07/17 02:07:08;;;;;;;14.77;6.90;;;19.20;82.30;;;;;;6214284;23;20430;-73
2021/07/17 02:09:35;;;;;;;15.55;6.47;;;19.20;82.40;;;;;;6214187;23;20074;-74
2021/07/17 02:12:03;;;;;;;13.10;5.75;;;19.20;82.40;;;;;;6189609;23;20198;-73
2021/07/17 02:14:36;;;;;;;11.38;6.05;;;19.30;82.40;;;;;;6188504;23;20324;-73
2021/07/17 02:17:05;;;;;;;14.98;7.45;;;19.10;82.80;;;;;;6215531;23;20247;-73
2021/07/17 02:19:33;;;;;;;14.38;6.78;;;19.30;82.70;;;;;;6189421;23;20028;-74
2021/07/17 02:22:00;;;;;;;14.15;6.00;;;19.20;82.70;;;;;;6214513;23;20030;-74
2021/07/17 02:24:32;;;;;;;14.32;6.60;;;19.20;82.60;;;;;;6214595;23;20051;-74
2021/07/17 02:26:59;;;;;;;17.13;6.72;;;19.20;82.70;;;;;;6214235;23;20028;-73
2021/07/17 02:29:27;;;;;;;11.98;6.82;;;19.20;83.00;;;;;;6214827;23;20200;-73
2021/07/17 02:31:56;;;;;;;16.98;6.60;;;19.20;83.00;;;;;;6215931;23;20016;-73
2021/07/17 02:34:23;;;;;;;21.02;6.57;;;19.20;82.90;;;;;;6214612;23;20072;-73
2021/07/17 02:36:50;;;;;;;15.27;7.13;;;19.10;83.50;;;;;;6212720;23;20012;-73
2021/07/17 02:39:18;;;;;;;15.05;6.28;;;19.10;83.50;;;;;;6214533;23;20015;-74
2021/07/17 02:41:45;;;;;;;23.30;7.35;;;19.10;83.70;;;;;;6211262;23;20025;-73
2021/07/17 02:44:12;;;;;;;12.10;6.22;;;19.10;83.90;;;;;;6213896;23;20020;-73
2021/07/17 02:46:40;;;;;;;15.73;6.65;;;19.10;84.00;;;;;;6214414;23;20534;-74
2021/07/17 02:49:08;;;;;;;12.50;5.78;;;19.20;83.80;;;;;;6212978;23;20403;-73
2021/07/17 02:51:35;;;;;;;16.65;6.38;;;19.10;83.60;;;;;;6213125;23;20031;-73
2021/07/17 02:54:02;;;;;;;14.48;6.90;;;19.30;83.50;;;;;;6215015;23;20308;-74
2021/07/17 02:56:30;;;;;;;13.93;6.63;;;19.30;83.40;;;;;;6213082;23;20268;-73
2021/07/17 02:58:57;;;;;;;13.05;5.57;;;19.30;83.40;;;;;;6213185;23;20331;-73
2021/07/17 03:01:25;;;;;;;12.55;6.32;;;19.30;83.50;;;;;;6210341;23;20040;-74
2021/07/17 03:03:52;;;;;;;16.35;6.45;;;19.30;83.20;;;;;;6187738;23;20044;-74
2021/07/17 03:06:21;;;;;;;11.02;5.82;;;19.40;82.80;;;;;;6187624;23;20088;-74
2021/07/17 03:08:48;;;;;;;13.25;6.38;;;19.50;82.60;;;;;;6187037;23;20029;-73
2021/07/17 03:11:15;;;;;;;17.63;6.75;;;19.50;82.10;;;;;;6213576;23;20089;-73
2021/07/17 03:13:42;;;;;;;19.00;7.18;;;19.50;81.90;;;;;;6215226;23;20032;-72
2021/07/17 03:16:09;;;;;;;14.30;7.10;;;19.60;81.80;;;;;;6188758;23;20296;-73
2021/07/17 03:18:36;;;;;;;14.55;6.40;;;19.60;81.30;;;;;;6188307;23;20047;-73
2021/07/17 03:21:04;;;;;;;15.95;7.20;;;19.60;81.00;;;;;;6212492;23;20052;-73
2021/07/17 03:23:32;;;;;;;11.70;6.10;;;19.60;80.60;;;;;;6212631;23;20075;-74
2021/07/17 03:26:00;;;;;;;19.75;6.85;;;19.60;80.60;;;;;;6216343;23;20030;-74
2021/07/17 03:28:28;;;;;;;11.48;6.22;;;19.60;80.50;;;;;;6216880;23;20017;-74
2021/07/17 03:30:55;;;;;;;12.00;6.38;;;19.60;80.50;;;;;;6217070;23;20024;-75
2021/07/17 03:33:23;;;;;;;19.00;7.25;;;19.60;80.60;;;;;;6215727;23;20017;-74
2021/07/17 03:35:50;;;;;;;14.23;6.05;;;19.50;80.60;;;;;;6216114;23;20080;-74
2021/07/17 03:38:17;;;;;;;15.27;7.28;;;19.60;80.40;;;;;;6213472;23;20020;-75
2021/07/17 03:40:46;;;;;;;14.30;6.00;;;19.60;80.50;;;;;;6214974;23;20316;-73
2021/07/17 03:43:13;;;;;;;13.27;6.72;;;19.60;80.50;;;;;;6215433;23;20036;-74
2021/07/17 03:45:40;;;;;;;14.45;6.90;;;19.60;80.50;;;;;;6217945;23;20228;-74
2021/07/17 03:48:08;;;;;;;14.85;6.35;;;19.60;80.60;;;;;;6189319;23;20076;-73
2021/07/17 03:50:37;;;;;;;17.95;7.20;;;19.60;80.60;;;;;;6215551;23;20032;-74
2021/07/17 03:53:05;;;;;;;15.10;7.20;;;19.60;80.60;;;;;;6215840;23;20032;-73
2021/07/17 03:55:33;;;;;;;14.20;6.10;;;19.40;81.30;;;;;;6217727;23;20102;-74
2021/07/17 03:58:01;;;;;;;12.32;6.30;;;19.40;81.50;;;;;;6216918;23;20025;-74
2021/07/17 04:00:30;;;;;;;14.32;5.78;;;19.30;82.30;;;;;;6212878;23;20032;-74
2021/07/17 04:02:57;;;;;;;18.40;6.43;;;19.30;82.50;;;;;;6213797;23;20075;-74
2021/07/17 04:05:24;;;;;;;16.98;6.47;;;19.30;82.50;;;;;;6214171;23;20031;-74
2021/07/17 04:07:52;;;;;;;9.77;5.82;;;19.30;82.40;;;;;;6214927;23;20328;-73
2021/07/17 04:10:19;;;;;;;13.90;6.00;;;19.40;82.40;;;;;;6188473;23;20201;-74
2021/07/17 04:12:46;;;;;;;15.75;6.60;;;19.40;82.50;;;;;;6216325;23;20023;-74
2021/07/17 04:15:16;;;;;;;11.02;5.93;;;19.30;82.50;;;;;;6216991;23;20198;-74
2021/07/17 04:17:43;;;;;;;15.90;6.38;;;19.30;82.40;;;;;;6216495;23;20073;-74
2021/07/17 04:20:11;;;;;;;16.52;6.05;;;19.40;82.30;;;;;;6216993;23;20025;-74
2021/07/17 04:22:39;;;;;;;14.63;6.43;;;19.30;82.50;;;;;;6190151;23;20048;-74
2021/07/17 04:25:08;;;;;;;18.20;6.35;;;19.40;82.40;;;;;;6215211;23;20040;-74
2021/07/17 04:27:35;;;;;;;15.27;5.55;;;19.30;82.40;;;;;;6212943;23;20013;-74
2021/07/17 04:30:03;;;;;;;11.20;6.30;;;19.30;82.50;;;;;;6214475;23;20035;-74
2021/07/17 04:32:39;;;;;;;11.30;5.78;;;19.30;82.60;;;;;;6213887;23;20232;-74
2021/07/17 04:35:07;;;;;;;17.42;6.60;;;19.30;82.50;;;;;;6214635;23;20393;-74
2021/07/17 04:37:34;;;;;;;10.95;5.78;;;19.30;82.50;;;;;;6214447;23;20377;-74
2021/07/17 04:40:02;;;;;;;14.27;6.90;;;19.40;82.50;;;;;;6213988;23;20017;-74
2021/07/17 04:42:34;;;;;;;12.73;5.68;;;19.40;82.20;;;;;;6187704;23;20297;-74
2021/07/17 04:45:01;;;;;;;15.00;6.32;;;19.50;82.30;;;;;;6213433;23;20016;-74
2021/07/17 04:47:28;;;;;;;17.00;6.35;;;19.50;82.10;;;;;;6213436;23;20356;-74
2021/07/17 04:50:02;;;;;;;14.23;6.85;;;19.30;82.60;;;;;;6214328;23;20084;-74
2021/07/17 04:52:30;;;;;;;18.67;7.07;;;19.40;82.70;;;;;;6213612;23;20251;-74
2021/07/17 04:54:57;;;;;;;14.95;6.25;;;19.50;82.40;;;;;;6214457;23;20264;-73
2021/07/17 04:57:24;;;;;;;13.88;7.15;;;19.50;82.10;;;;;;6213223;23;20029;-74
2021/07/17 04:59:52;;;;;;;14.05;6.97;;;19.50;82.10;;;;;;6213507;23;20024;-73
2021/07/17 05:02:19;;;;;;;18.63;6.88;;;19.50;82.20;;;;;;6206406;23;20047;-74
2021/07/17 05:04:47;;;;;;;15.77;6.88;;;19.50;82.30;;;;;;6187400;23;20240;-73
2021/07/17 05:07:15;;;;;;;18.10;6.53;;;19.60;81.90;;;;;;6214196;23;20051;-73
2021/07/17 05:09:42;;;;;;;14.80;6.90;;;19.60;82.00;;;;;;6215090;23;20257;-74
2021/07/17 05:12:10;;;;;;;12.77;7.05;;;19.60;81.60;;;;;;6214547;23;20047;-74
2021/07/17 05:14:37;;;;;;;14.95;6.72;;;19.80;81.40;;;;;;6215813;23;20237;-74
2021/07/17 05:17:04;;;;;;;13.65;6.45;;;19.80;81.10;;;;;;6189707;23;20044;-74
2021/07/17 05:19:32;;;;;;;15.35;6.28;;;19.80;81.30;;;;;;6190202;23;20028;-74
2021/07/17 05:21:59;;;;;;;11.60;5.70;;;19.80;81.30;;;;;;6215189;23;20024;-74
2021/07/17 05:24:27;;;;;;;13.00;5.85;;;19.80;81.00;;;;;;6216242;23;20141;-74
2021/07/17 05:26:55;;;;;;;21.02;6.20;;;19.80;81.10;;;;;;6189730;23;20351;-74
2021/07/17 05:29:22;;;;;;;13.65;6.28;;;19.80;81.20;;;;;;6216361;23;20024;-74
2021/07/17 05:31:49;;;;;;;14.10;6.47;;;19.80;81.10;;;;;;6216214;23;20111;-74
2021/07/17 05:34:17;;;;;;;11.45;5.78;;;19.70;81.00;;;;;;6216440;23;20024;-75
2021/07/17 05:36:44;;;;;;;11.43;5.65;;;19.80;81.00;;;;;;6215201;23;20024;-74
2021/07/17 05:39:11;;;;;;;13.63;6.25;;;19.80;80.90;;;;;;6214289;23;20178;-74
2021/07/17 05:41:40;;;;;;;13.50;5.60;;;19.90;81.00;;;;;;6189262;23;20112;-74
2021/07/17 05:44:07;;;;;;;14.75;5.93;;;19.90;81.00;;;;;;6189472;23;20054;-74
2021/07/17 05:46:35;;;;;;;13.38;6.80;;;19.90;80.80;;;;;;6214852;23;20051;-74
2021/07/17 05:49:02;;;;;;;11.35;6.43;;;20.00;80.60;;;;;;6189762;23;20047;-74
2021/07/17 05:51:29;;;;;;;15.30;6.47;;;20.10;80.40;;;;;;6217231;23;20023;-74
2021/07/17 05:53:56;;;;;;;17.45;6.43;;;20.10;80.50;;;;;;6214456;23;20039;-74
2021/07/17 05:56:23;;;;;;;13.15;6.72;;;20.10;80.40;;;;;;6215801;23;20046;-74
2021/07/17 05:58:52;;;;;;;17.35;7.43;;;20.00;80.90;;;;;;6215197;23;20039;-74
2021/07/17 06:01:19;;;;;;;12.05;6.30;;;20.10;81.00;;;;;;6214174;23;20024;-74
2021/07/17 06:03:47;;;;;;;11.68;6.15;;;20.10;80.60;;;;;;6216524;23;20031;-74
2021/07/17 06:06:14;;;;;;;13.02;5.75;;;20.20;80.30;;;;;;6188571;23;20028;-74
2021/07/17 06:08:41;;;;;;;13.30;5.78;;;20.20;80.40;;;;;;6187731;23;20016;-74
2021/07/17 06:11:09;;;;;;;12.15;6.18;;;20.30;80.30;;;;;;6215279;23;20442;-74
2021/07/17 06:13:36;;;;;;;14.27;6.85;;;20.30;79.80;;;;;;6188138;23;20292;-73
2021/07/17 06:16:05;;;;;;;13.02;6.57;;;20.30;79.70;;;;;;6215038;23;20075;-73
2021/07/17 06:18:32;;;;;;;15.23;5.68;;;20.30;80.10;;;;;;6216455;23;20039;-74
2021/07/17 06:20:59;;;;;;;15.90;7.18;;;20.20;79.70;;;;;;6215483;23;20048;-74
2021/07/17 06:23:28;;;;;;;12.98;5.72;;;20.30;79.70;;;;;;6214155;23;20356;-74
2021/07/17 06:25:56;;;;;;;17.92;5.80;;;20.50;78.90;;;;;;6212080;23;20083;-74
2021/07/17 06:28:26;;;;;;;12.25;5.78;;;20.40;79.00;;;;;;6214020;23;20336;-74
2021/07/17 06:30:53;;;;;;;12.85;5.50;;;20.50;79.20;;;;;;6214590;23;20316;-73
2021/07/17 06:33:22;;;;;;;15.50;6.78;;;20.70;78.90;;;;;;6213529;23;20237;-74
2021/07/17 06:35:49;;;;;;;12.53;6.00;;;20.80;78.60;;;;;;6215506;23;20040;-73
2021/07/17 06:38:16;;;;;;;12.63;5.80;;;20.80;78.20;;;;;;6212964;23;20015;-73
2021/07/17 06:40:44;;;;;;;11.32;5.90;;;20.70;78.20;;;;;;6213413;23;20076;-73
2021/07/17 06:43:11;;;;;;;10.10;5.78;;;20.80;77.90;;;;;;6213418;23;20336;-74
2021/07/17 06:45:38;;;;;;;12.80;6.45;;;20.90;77.80;;;;;;6210956;23;20048;-74
2021/07/17 06:48:07;;;;;;;11.32;5.55;;;21.00;77.50;;;;;;6212633;23;20020;-73
2021/07/17 06:50:36;;;;;;;14.43;6.45;;;21.10;77.40;;;;;;6212412;23;20332;-74
2021/07/17 06:53:03;;;;;;;12.35;6.22;;;21.10;77.10;;;;;;6209971;23;20063;-74
2021/07/17 06:55:32;;;;;;;14.38;5.60;;;21.30;77.40;;;;;;6214285;23;20009;-74
2021/07/17 06:58:00;;;;;;;11.82;5.13;;;21.30;76.90;;;;;;6187227;23;20024;-73
2021/07/17 07:00:34;;;;;;;11.60;5.50;;;21.20;76.80;;;;;;6183527;23;20240;-74
2021/07/17 07:03:01;;;;;;;17.33;6.38;;;21.30;76.50;;;;;;6217502;23;20017;-74
2021/07/17 07:05:30;;;;;;;14.93;5.85;;;21.50;76.30;;;;;;6218035;23;20024;-74
2021/07/17 07:07:59;;;;;;;13.30;5.70;;;21.40;76.10;;;;;;6218371;23;20020;-73
2021/07/17 07:10:26;;;;;;;14.35;6.63;;;21.60;75.80;;;;;;6218443;23;20328;-74
2021/07/17 07:12:53;;;;;;;13.05;5.57;;;21.80;75.20;;;;;;6190703;23;20028;-74
2021/07/17 07:15:21;;;;;;;15.77;6.07;;;22.00;74.40;;;;;;6217826;23;20236;-74
2021/07/17 07:17:48;;;;;;;10.68;5.68;;;21.80;74.70;;;;;;6218224;23;20291;-74
2021/07/17 07:20:16;;;;;;;10.07;5.25;;;21.80;75.00;;;;;;6193231;23;20024;-74
2021/07/17 07:22:43;;;;;;;13.65;6.03;;;21.80;74.00;;;;;;6221171;23;20024;-76
2021/07/17 07:25:12;;;;;;;10.68;5.75;;;22.10;73.50;;;;;;6219665;23;20031;-75
2021/07/17 07:27:40;;;;;;;11.20;5.75;;;22.10;73.70;;;;;;6219458;23;20045;-75
2021/07/17 07:30:08;;;;;;;13.32;5.68;;;22.20;72.90;;;;;;6220665;23;20017;-75
2021/07/17 07:32:35;;;;;;;11.30;5.90;;;22.20;73.10;;;;;;6219437;23;20255;-75
2021/07/17 07:35:02;;;;;;;12.30;5.60;;;22.20;72.00;;;;;;6221479;23;20015;-75
2021/07/17 07:37:30;;;;;;;10.55;5.13;;;22.30;72.50;;;;;;6192489;23;20034;-76
2021/07/17 07:39:57;;;;;;;15.88;5.80;;;22.10;72.40;;;;;;6194075;23;20248;-75
2021/07/17 07:42:26;;;;;;;13.02;5.60;;;21.70;73.40;;;;;;6219865;23;20051;-75
2021/07/17 07:44:54;;;;;;;12.33;5.63;;;21.90;73.70;;;;;;6193896;23;20260;-75
2021/07/17 07:47:23;;;;;;;14.27;6.18;;;21.90;73.60;;;;;;6220592;23;20418;-75
2021/07/17 07:49:52;;;;;;;8.75;5.93;;;21.90;73.70;;;;;;6193767;23;20031;-75
2021/07/17 07:52:19;;;;;;;18.85;6.00;;;21.90;74.10;;;;;;6219696;23;20023;-75
2021/07/17 07:54:47;;;;;;;11.95;6.15;;;21.80;74.20;;;;;;6219833;23;20017;-75
2021/07/17 07:57:14;;;;;;;12.80;5.97;;;21.60;75.20;;;;;;6192611;23;20035;-75
2021/07/17 07:59:43;;;;;;;11.55;5.75;;;21.40;76.40;;;;;;6190852;23;20025;-75
2021/07/17 08:02:11;;;;;;;12.13;5.53;;;21.50;76.10;;;;;;6209143;23;20038;-75
2021/07/17 08:04:39;;;;;;;10.80;5.57;;;21.60;75.80;;;;;;6211460;23;20325;-75
2021/07/17 08:07:06;;;;;;;9.95;5.80;;;21.80;75.50;;;;;;6215544;23;20044;-75
2021/07/17 08:09:33;;;;;;;14.43;5.40;;;21.80;75.30;;;;;;6213086;23;20242;-74
2021/07/17 08:12:01;;;;;;;12.40;5.30;;;21.90;75.30;;;;;;6213980;23;20032;-74
2021/07/17 08:14:28;;;;;;;12.77;5.95;;;22.10;75.10;;;;;;6213685;23;20055;-74
2021/07/17 08:16:57;;;;;;;9.63;4.97;;;22.40;74.50;;;;;;6215391;23;20017;-74
2021/07/17 08:19:24;;;;;;;12.25;5.82;;;22.50;73.50;;;;;;6190332;23;20333;-74
2021/07/17 08:21:52;;;;;;;10.65;5.70;;;22.50;73.60;;;;;;6216064;23;20228;-74
2021/07/17 08:24:25;;;;;;;12.10;5.65;;;22.30;74.40;;;;;;6188863;23;20384;-74
2021/07/17 08:26:52;;;;;;;11.77;5.80;;;22.70;73.80;;;;;;6214201;23;20032;-74
2021/07/17 08:29:20;;;;;;;18.38;6.82;;;22.80;72.60;;;;;;6210934;23;20047;-74
2021/07/17 08:31:48;;;;;;;14.35;6.25;;;22.90;71.50;;;;;;6212281;23;20025;-74
2021/07/17 08:34:18;;;;;;;16.30;6.35;;;23.00;71.10;;;;;;6214248;23;20067;-74
2021/07/17 08:36:45;;;;;;;12.48;5.40;;;23.30;70.50;;;;;;6188859;23;20209;-74
2021/07/17 08:39:12;;;;;;;11.40;5.43;;;23.70;69.50;;;;;;6213823;23;20047;-74
2021/07/17 08:41:45;;;;;;;9.68;5.93;;;24.00;69.20;;;;;;6186018;23;20033;-75
2021/07/17 08:44:13;;;;;;;11.48;5.80;;;24.60;67.30;;;;;;6212635;23;20040;-75
2021/07/17 08:46:47;;;;;;;10.85;5.72;;;24.70;66.20;;;;;;6213767;23;20025;-74
2021/07/17 08:49:16;;;;;;;11.90;6.38;;;24.80;65.60;;;;;;6216006;23;20059;-75
2021/07/17 08:51:46;;;;;;;12.40;5.97;;;24.80;65.60;;;;;;6187398;23;20087;-75
2021/07/17 08:54:14;;;;;;;8.65;5.78;;;24.90;65.60;;;;;;6189651;23;20024;-75
2021/07/17 08:56:42;;;;;;;10.10;4.95;;;25.10;64.60;;;;;;6219036;23;20008;-74
2021/07/17 08:59:10;;;;;;;11.05;5.57;;;25.00;65.00;;;;;;6215312;23;20021;-75
2021/07/17 09:01:37;;;;;;;15.80;6.63;;;25.00;64.40;;;;;;6186287;23;20043;-74
2021/07/17 09:04:07;;;;;;;10.85;5.80;;;24.90;65.30;;;;;;6189122;23;20104;-74
2021/07/17 09:06:36;;;;;;;14.07;5.70;;;24.60;65.70;;;;;;6189183;23;20379;-74
2021/07/17 09:09:06;;;;;;;12.23;5.55;;;24.60;66.10;;;;;;6216599;23;20020;-74
2021/07/17 09:11:38;;;;;;;10.95;5.22;;;24.70;65.40;;;;;;6214343;23;20031;-74
2021/07/17 09:14:05;;;;;;;11.20;5.38;;;24.90;65.10;;;;;;6216485;23;20024;-74
2021/07/17 09:16:36;;;;;;;10.25;5.90;;;24.70;65.40;;;;;;6217778;23;20051;-74
2021/07/17 09:19:06;;;;;;;8.90;5.18;;;24.90;64.50;;;;;;6217522;23;20327;-74
2021/07/17 09:21:37;;;;;;;11.48;5.65;;;24.70;65.60;;;;;;6216437;23;20482;-74
2021/07/17 09:24:08;;;;;;;9.65;5.38;;;25.00;65.00;;;;;;6213034;23;20316;-75
2021/07/17 09:26:37;;;;;;;11.45;5.35;;;25.30;64.10;;;;;;6217745;23;20025;-74
2021/07/17 09:29:06;;;;;;;15.30;5.30;;;25.30;63.60;;;;;;6215687;23;20013;-74
2021/07/17 09:31:36;;;;;;;10.07;5.45;;;25.40;63.90;;;;;;6218691;23;20016;-75
2021/07/17 09:34:06;;;;;;;9.32;4.95;;;25.60;63.30;;;;;;6222232;23;20044;-75
2021/07/17 09:36:35;;;;;;;10.73;4.80;;;25.60;62.40;;;;;;6195893;23;20095;-75
2021/07/17 09:39:05;;;;;;;12.25;5.05;;;25.40;63.80;;;;;;6193494;23;20017;-74
2021/07/17 09:41:32;;;;;;;12.65;5.60;;;25.40;64.30;;;;;;6218419;23;20226;-74
2021/07/17 09:44:02;;;;;;;11.02;6.25;;;25.40;64.00;;;;;;6194493;23;20347;-75
2021/07/17 09:46:31;;;;;;;10.38;5.28;;;25.60;63.80;;;;;;6220668;23;20020;-75
2021/07/17 09:49:00;;;;;;;10.20;5.05;;;25.50;64.50;;;;;;6216185;23;20043;-74
2021/07/17 09:51:29;;;;;;;11.05;5.40;;;25.70;63.60;;;;;;6216703;23;20281;-75
2021/07/17 09:53:59;;;;;;;10.35;5.63;;;26.50;61.20;;;;;;6216663;23;20024;-74
2021/07/17 09:56:28;;;;;;;11.90;6.25;;;26.70;59.70;;;;;;6191220;23;20115;-74
2021/07/17 09:58:59;;;;;;;10.45;5.53;;;26.40;61.70;;;;;;6191702;23;20323;-75
2021/07/17 10:01:30;;;;;;;12.20;5.63;;;26.90;60.00;;;;;;6213344;23;20031;-75
2021/07/17 10:04:04;;;;;;;10.23;5.50;;;26.70;59.80;;;;;;6217226;23;20263;-74
2021/07/17 10:06:41;;;;;;;11.43;5.40;;;27.00;59.90;;;;;;6216686;23;20127;-73
2021/07/17 10:09:24;;;;;;;10.80;5.47;;;27.60;58.40;;;;;;6191043;23;20084;-73
2021/07/17 10:11:58;;;;;;;10.45;5.35;;;28.30;56.40;;;;;;6216884;23;20032;-74
2021/07/17 10:14:28;;;;;;;10.05;5.18;;;28.60;55.60;;;;;;6189384;23;20047;-74
2021/07/17 10:16:58;;;;;;;7.03;4.90;;;29.00;54.30;;;;;;6217672;23;20252;-74
2021/07/17 10:19:27;;;;;;;9.35;4.80;;;29.60;52.70;;;;;;6216813;23;20020;-74
2021/07/17 10:21:56;;;;;;;13.27;5.22;;;29.90;52.00;;;;;;6189991;23;20025;-74
2021/07/17 10:24:26;;;;;;;11.20;5.55;;;29.50;53.10;;;;;;6217460;23;20084;-75
2021/07/17 10:26:54;;;;;;;8.73;5.85;;;30.00;52.50;;;;;;6218320;23;20023;-74
2021/07/17 10:29:24;;;;;;;13.50;7.15;;;29.90;52.00;;;;;;6191125;23;20024;-75
2021/07/17 10:31:52;;;;;;;10.65;5.50;;;29.90;52.30;;;;;;6190974;23;20312;-75
2021/07/17 10:34:21;;;;;;;13.35;5.13;;;31.00;49.10;;;;;;6219093;23;20008;-74
2021/07/17 10:36:57;;;;;;;9.35;4.60;;;31.10;48.80;;;;;;6217556;23;20080;-74
2021/07/17 10:39:30;;;;;;;10.20;5.60;;;31.10;48.70;;;;;;6193309;23;20102;-74
2021/07/17 10:41:59;;;;;;;9.88;4.65;;;31.00;49.50;;;;;;6219199;23;20025;-74
2021/07/17 10:44:47;;;;;;;9.82;4.82;;;31.10;49.00;;;;;;6191787;23;20058;-74
2021/07/17 10:47:16;;;;;;;8.82;4.47;;;31.40;48.80;;;;;;6194354;23;20039;-74
2021/07/17 10:49:46;;;;;;;8.13;4.60;;;31.50;49.20;;;;;;6193697;23;20099;-74
2021/07/17 10:52:13;;;;;;;6.88;4.57;;;32.10;47.90;;;;;;6190744;23;20036;-74
2021/07/17 10:54:43;;;;;;;8.55;4.63;;;33.30;45.40;;;;;;6221342;23;20025;-74
2021/07/17 10:57:13;;;;;;;6.20;3.85;;;32.50;45.80;;;;;;6194252;23;20036;-74
2021/07/17 10:59:48;;;;;;;8.88;4.82;;;32.80;46.00;;;;;;6222364;23;20224;-73
2021/07/17 11:02:24;;;;;;;11.60;4.57;;;33.80;42.90;;;;;;6215638;23;20028;-74
2021/07/17 11:05:02;;;;;;;9.88;5.03;;;32.80;45.10;;;;;;6193898;23;20317;-73
2021/07/17 11:07:34;;;;;;;9.93;5.35;;;33.10;44.70;;;;;;6195040;23;20036;-74
2021/07/17 11:10:22;;;;;;;9.40;4.82;;;32.60;44.20;;;;;;6222748;23;20289;-74
2021/07/17 11:12:52;;;;;;;8.47;4.37;;;32.20;45.50;;;;;;6201625;23;20036;-74
2021/07/17 11:15:41;;;;;;;8.23;4.25;;;31.90;45.90;;;;;;6223011;23;20016;-74
2021/07/17 11:18:47;;;;;;;8.05;4.85;;;31.70;47.00;;;;;;6222102;23;20402;-74
2021/07/17 11:21:23;;;;;;;8.00;4.55;;;31.40;47.40;;;;;;6194316;23;20027;-75
2021/07/17 11:23:51;;;;;;;8.02;4.63;;;31.30;47.90;;;;;;6221225;23;20332;-74
2021/07/17 11:26:24;;;;;;;8.25;4.45;;;30.60;48.20;;;;;;6221597;23;20016;-74
2021/07/17 11:29:02;;;;;;;9.80;4.93;;;29.70;50.40;;;;;;6195902;23;20342;-74
2021/07/17 11:31:43;;;;;;;12.70;5.60;;;29.00;52.90;;;;;;6220801;23;20208;-74
2021/07/17 11:34:44;;;;;;;9.90;5.90;;;28.70;53.30;;;;;;6192183;23;20083;-73
2021/07/17 11:37:16;;;;;;;11.45;5.35;;;28.70;55.00;;;;;;6194316;23;20063;-74
2021/07/17 11:39:45;;;;;;;9.30;5.68;;;28.60;55.30;;;;;;6216928;23;20312;-74
2021/07/17 11:42:15;;;;;;;13.93;5.80;;;28.40;55.50;;;;;;6216268;23;20112;-72
2021/07/17 11:44:44;;;;;;;8.93;5.38;;;28.50;55.10;;;;;;6216682;23;20025;-74
2021/07/17 11:47:14;;;;;;;9.30;5.18;;;28.60;54.80;;;;;;6215822;23;20067;-75
2021/07/17 11:49:43;;;;;;;10.60;5.85;;;28.80;55.10;;;;;;6216640;23;20336;-74
2021/07/17 11:52:11;;;;;;;;;;;29.00;54.40;;;;;;6216945;23;20023;-74
2021/07/17 11:54:41;;;;;;;13.00;5.10;;;29.00;54.50;;;;;;6213007;23;19920;-74
2021/07/17 11:57:18;;;;;;;10.73;5.63;;;28.80;53.90;;;;;;6216522;23;20047;-74
2021/07/17 11:59:48;;;;;;;10.43;5.32;;;28.80;54.20;;;;;;6218410;23;20427;-74
2021/07/17 12:02:17;;;;;;;11.10;5.70;;;29.30;53.70;;;;;;6211849;23;20260;-73
2021/07/17 12:04:47;;;;;;;9.77;5.47;;;29.10;53.70;;;;;;6216507;23;20029;-74
2021/07/17 12:07:16;;;;;;;14.07;6.15;;;28.90;54.70;;;;;;6192273;23;20119;-73
2021/07/17 12:09:45;;;;;;;10.50;5.93;;;28.90;54.80;;;;;;6217038;23;20316;-73
2021/07/17 12:12:26;;;;;;;;;;;29.00;54.80;;;;;;6218992;23;20306;-73
2021/07/17 12:14:59;;;;;;;11.20;5.78;;;29.80;53.00;;;;;;6217754;23;19942;-73
2021/07/17 12:17:30;;;;;;;12.50;5.68;;;31.50;48.90;;;;;;6216116;23;20309;-74
2021/07/17 12:20:17;;;;;;;12.10;6.10;;;31.50;48.60;;;;;;6186236;23;20028;-73
2021/07/17 12:23:06;;;;;;;10.55;5.38;;;33.10;46.00;;;;;;6189119;23;20034;-73
2021/07/17 12:25:34;;;;;;;;;;;34.80;42.20;;;;;;6217156;23;20031;-73
2021/07/17 12:28:14;;;;;;;10.33;4.43;;;35.50;39.60;;;;;;6217771;23;19939;-73
2021/07/17 12:30:44;;;;;;;10.48;5.32;;;34.00;41.50;;;;;;6193343;23;20040;-73
2021/07/17 12:33:27;;;;;;;8.95;4.57;;;33.00;43.80;;;;;;6194901;23;20079;-74
2021/07/17 12:36:05;;;;;;;12.23;5.50;;;32.10;45.90;;;;;;6193980;23;20028;-74
2021/07/17 12:38:34;;;;;;;11.15;5.35;;;33.00;44.60;;;;;;6220809;23;20024;-73
2021/07/17 12:41:02;;;;;;;;;;;34.60;41.50;;;;;;6222375;23;20040;-73
2021/07/17 12:43:41;;;;;;;9.23;4.82;;;36.10;39.20;;;;;;6220127;23;19995;-74
2021/07/17 12:46:14;;;;;;;7.63;4.50;;;37.30;36.90;;;;;;6219969;23;20055;-74
2021/07/17 12:48:49;;;;;;;9.63;5.53;;;38.10;34.80;;;;;;6221200;23;20025;-74
2021/07/17 12:51:19;;;;;;;11.38;5.43;;;37.30;35.60;;;;;;6212814;23;20076;-73